• Join FlightAware (Why Join?)
  • Login
  • US Flag 
01:52AM EDT


 

Airport Tracker/Info


-or-


 

Live Flight TrackerFlight Track Log ✈ N26141 ✈ 28-Apr-2013 ✈ KIAH - KBNA

Flight Track Log - Related Links

Times and Time Zones

All times are in EDT time to prevent confusion due to time zone crossing. See the N26141 flight status page for this flight to view local times or setup timezone preferences in your user account.

Time Position Orientation Groundspeed Altitude Reporting Facility
EDT Latitude Longitude Course Direction KTS MPH feet Rate Location/Type
06:51PM 29.9764 -95.2983 35° Northeast 161 185 700  Level Houston Center
06:51PM 30.0094 -95.2703 36° Northeast 226 260 2,200 1,800 Climbing Houston Center
06:53PM 30.0739 -95.2383 23° Northeast 276 318 4,000 1,860 Climbing Houston Center
06:54PM 30.1392 -95.1942 30° Northeast 277 319 6,000 2,520 Climbing Houston Center
06:55PM 30.2000 -95.1503 32° Northeast 259 298 9,200 2,100 Climbing Houston Center
06:56PM 30.5359 -94.8946 35° Northeast  Level FlightAware Approximate
06:56PM 30.2731 -95.0978 32° Northeast 299 344 10,400  Level Houston Center
06:57PM 30.3492 -95.0450 31° Northeast 333 383 11,900 1,500 Climbing Houston Center
06:58PM 30.4375 -94.9817 32° Northeast 349 402 13,800 1,740 Climbing Houston Center
06:59PM 30.5406 -94.9019 34° Northeast 369 425 15,600 1,800 Climbing Houston Center
07:00PM 30.6286 -94.8336 34° Northeast 380 437 17,600 1,500 Climbing Houston Center
07:01PM 30.7164 -94.7658 34° Northeast 382 440 18,800 660 Climbing Houston Center
07:02PM 30.8103 -94.6942 33° Northeast 401 461 19,000 60 Climbing Houston Center
07:03PM 30.9069 -94.6186 34° Northeast 418 481 19,000 660 Level Houston Center
07:04PM 31.0203 -94.5314 33° Northeast 410 472 20,400 1,440 Climbing Houston Center
07:05PM 31.0956 -94.4733 33° Northeast 398 458 21,800 1,680 Climbing Fort Worth Center
07:06PM 31.1756 -94.4125 33° Northeast 386 444 23,600 1,740 Climbing Fort Worth Center
07:07PM 31.2678 -94.3389 34° Northeast 392 451 25,300 1,380 Climbing Fort Worth Center
07:08PM 31.3600 -94.2678 33° Northeast 392 451 26,400 840 Climbing Fort Worth Center
07:09PM 31.4603 -94.1889 34° Northeast 403 464 27,000 1,020 Climbing Fort Worth Center
07:10PM 31.5564 -94.1125 34° Northeast 410 472 28,500 960 Climbing Fort Worth Center
07:11PM 31.6628 -94.0281 34° Northeast 415 478 29,000 540 Climbing Fort Worth Center
07:12PM 31.7569 -93.9611 31° Northeast 415 478 29,600 960 Climbing Fort Worth Center
07:13PM 31.8589 -93.8742 36° Northeast 434 499 31,000 660 Climbing Fort Worth Center
07:14PM 31.9650 -93.7894 34° Northeast 446 513 31,000 360 Level Fort Worth Center
07:15PM 32.0733 -93.7089 32° Northeast 453 521 31,800 900 Climbing Fort Worth Center
07:16PM 32.1914 -93.6036 37° Northeast 458 527 32,800 600 Climbing Fort Worth Center
07:17PM 32.2911 -93.5256 33° Northeast 466 536 33,000 120 Climbing Fort Worth Center
07:18PM 32.4031 -93.4347 34° Northeast 477 549 33,100 480 Climbing Fort Worth Center
07:19PM 32.5150 -93.3461 34° Northeast 477 549 34,000 900 Climbing Fort Worth Center
07:20PM 32.6208 -93.2600 34° Northeast 477 549 34,900 480 Climbing Fort Worth Center
07:21PM 32.7306 -93.1708 34° Northeast 477 549 35,000  Climbing Fort Worth Center
07:22PM 32.8403 -93.0817 34° Northeast 477 549 35,000  Level Fort Worth Center
07:23PM 32.9539 -92.9919 34° Northeast 477 549 35,000  Level Fort Worth Center
07:24PM 33.0636 -92.9022 34° Northeast 477 549 35,000  Level Fort Worth Center
07:25PM 33.1750 -92.8122 34° Northeast 477 549 35,000  Level Fort Worth Center
07:26PM 33.3317 -92.6347 43° Northeast 477 549 35,000  Level Memphis Center
07:27PM 33.4133 -92.5100 52° Northeast 482 555 35,000 300 Level Memphis Center
07:28PM 33.4947 -92.3825 53° Northeast 482 555 35,600 960 Climbing Memphis Center
07:29PM 33.5758 -92.2672 50° Northeast 470 541 37,000 660 Climbing Memphis Center
07:30PM 33.6528 -92.1464 53° Northeast 457 526 37,000  Level Memphis Center
07:31PM 33.7317 -92.0233 52° Northeast 457 526 37,000  Level Memphis Center
07:32PM 33.8169 -91.8972 51° Northeast 464 534 37,000  Level Memphis Center
07:33PM 33.8978 -91.7711 52° Northeast 469 540 37,000  Level Memphis Center
07:34PM 33.9825 -91.6322 54° Northeast 474 545 37,000  Level Memphis Center
07:35PM 34.0547 -91.5181 53° Northeast 474 545 37,000  Level Memphis Center
07:36PM 34.1372 -91.3861 53° Northeast 479 551 37,000  Level Memphis Center
07:37PM 34.2217 -91.2614 51° Northeast 479 551 37,000  Level Memphis Center
07:38PM 34.2997 -91.1342 53° Northeast 479 551 37,000  Level Memphis Center
07:39PM 34.3839 -91.0039 52° Northeast 484 557 37,000  Level Memphis Center
07:40PM 34.4617 -90.8761 54° Northeast 479 551 37,000  Level Memphis Center
07:41PM 34.5519 -90.7328 53° Northeast 484 557 37,000  Level Memphis Center
07:42PM 34.6336 -90.6019 53° Northeast 484 557 37,000  Level Memphis Center
07:43PM 34.7131 -90.4758 53° Northeast 477 549 37,000  Level Memphis Center
07:44PM 34.7903 -90.3469 54° Northeast 477 549 37,000 -480 Level Memphis Center
07:45PM 34.8717 -90.2178 52° Northeast 477 549 36,100 -960 Descending Memphis Center
07:46PM 34.9528 -90.0886 53° Northeast 484 557 35,100 -600 Descending Memphis Center
07:47PM 35.0275 -89.9564 55° Northeast 484 557 35,000 -60 Descending Memphis Center
07:48PM 35.0750 -89.8217 67° East 478 550 35,000  Level Memphis Center
07:49PM 35.1242 -89.6664 69° East 478 550 35,000  Level Memphis Center
07:50PM 35.1733 -89.5161 68° East 478 550 35,000  Level Memphis Center
07:51PM 35.2286 -89.3506 68° East 467 537 35,000  Level Memphis Center
07:52PM 35.2772 -89.1997 68° East 472 543 35,000  Level Memphis Center
07:53PM 35.3258 -89.0464 69° East 479 551 35,000 -480 Level Memphis Center
07:54PM 35.3761 -88.8928 68° East 479 551 34,100  Descending Memphis Center
07:55PM 35.4244 -88.7417 69° East 474 545 35,000 -2,580 Climbing Memphis Center
07:56PM 35.4744 -88.5853 69° East 474 545 28,900 -4,320 Descending Memphis Center
07:57PM 35.5264 -88.4311 67° East 480 552 26,400 -2,400 Descending Memphis Center
07:58PM 35.5719 -88.2794 70° East 479 551 24,100 -1,200 Descending Memphis Center
07:59PM 35.6197 -88.1453 66° East 450 518 24,000 -60 Descending Memphis Center
08:00PM 35.6611 -88.0267 67° East 417 480 24,000 -360 Level Memphis Center
08:01PM 35.7064 -87.8797 69° East 441 507 23,300 -900 Descending Memphis Center
08:02PM 35.7472 -87.7328 71° East 449 517 22,300 -1,860 Descending Memphis Center
08:03PM 35.7919 -87.5881 69° East 449 517 19,600 -2,820 Descending Memphis Center
08:04PM 35.8428 -87.4403 67° East 435 501 16,700 -3,120 Descending Memphis Center
08:07PM 35.9333 -87.1833 66° East 340 391 9,800 -2,640 Descending Nashville TRACON
08:08PM 35.9667 -87.0833 68° East 276 318 8,500 -1,500 Descending Nashville TRACON
08:09PM 35.9667 -87.0000 90° East 291 335 6,800 -1,800 Descending Nashville TRACON
08:10PM 36.0000 -86.8833 71° East 281 323 5,000 -1,800 Descending Nashville TRACON
08:11PM 36.0167 -86.8000 76° East 276 318 3,200 -1,260 Descending Nashville TRACON
08:12PM 36.0333 -86.7167 76° East 210 242 2,500 -780 Descending Nashville TRACON
08:13PM 36.0667 -86.7000 22° Northeast 121 139 1,700 -840 Descending Nashville TRACON